createdAt,value
2018-06-15T00:02:30.843Z,99.90
2018-06-15T00:04:59.228Z,99.90
2018-06-15T00:07:27.583Z,99.90
2018-06-15T00:09:57.037Z,99.90
2018-06-15T00:12:25.379Z,99.90
2018-06-15T00:14:53.762Z,99.90
2018-06-15T00:17:22.119Z,99.90
2018-06-15T00:19:50.500Z,99.90
2018-06-15T00:22:18.841Z,99.90
2018-06-15T00:24:47.222Z,99.90
2018-06-15T00:27:15.592Z,99.90
2018-06-15T00:29:43.987Z,99.90
2018-06-15T00:32:13.318Z,99.90
2018-06-15T00:34:41.758Z,99.90
2018-06-15T00:37:10.156Z,99.90
2018-06-15T00:39:38.552Z,99.90
2018-06-15T00:42:06.974Z,99.90
2018-06-15T00:44:35.381Z,99.90
2018-06-15T00:47:03.760Z,99.90
2018-06-15T00:49:32.145Z,99.90
2018-06-15T00:52:00.493Z,99.90
2018-06-15T00:54:28.891Z,99.90
2018-06-15T00:57:08.706Z,99.90
2018-06-15T00:59:37.088Z,99.90
2018-06-15T01:02:05.545Z,99.90
2018-06-15T01:04:33.884Z,99.90
2018-06-15T01:07:02.316Z,99.90
2018-06-15T01:09:30.638Z,99.90
2018-06-15T01:11:59.128Z,99.90
2018-06-15T01:14:27.464Z,99.90
2018-06-15T01:16:55.854Z,99.90
2018-06-15T01:19:24.227Z,99.90
2018-06-15T01:24:20.968Z,99.90
2018-06-15T01:26:49.365Z,99.90
2018-06-15T01:29:17.737Z,99.90
2018-06-15T01:31:46.137Z,99.90
2018-06-15T01:34:15.624Z,99.90
2018-06-15T01:39:12.329Z,99.90
2018-06-15T01:41:40.715Z,99.90
2018-06-15T01:44:09.044Z,99.90
2018-06-15T01:46:37.511Z,99.90
2018-06-15T01:49:05.866Z,99.90
2018-06-15T01:51:34.248Z,99.90
2018-06-15T01:54:02.615Z,99.90
2018-06-15T01:56:30.976Z,99.90
2018-06-15T01:58:59.384Z,99.90
2018-06-15T02:01:27.867Z,99.90
2018-06-15T02:03:56.089Z,99.90
2018-06-15T02:06:24.464Z,99.90
2018-06-15T02:08:52.855Z,99.90
2018-06-15T02:11:21.621Z,99.90
2018-06-15T02:13:50.041Z,99.90
2018-06-15T02:16:18.385Z,99.90
2018-06-15T02:18:46.767Z,99.90
2018-06-15T02:23:43.363Z,99.90
2018-06-15T02:26:11.723Z,99.90
2018-06-15T02:28:40.085Z,99.90
2018-06-15T02:31:08.530Z,99.90
2018-06-15T02:33:36.875Z,99.90
2018-06-15T02:36:05.244Z,99.90
2018-06-15T02:38:33.613Z,99.90
2018-06-15T02:41:01.997Z,99.90
2018-06-15T02:43:30.410Z,99.90
2018-06-15T02:45:58.793Z,99.90
2018-06-15T02:48:27.177Z,99.90
2018-06-15T02:50:55.545Z,99.90
2018-06-15T02:53:23.921Z,99.90
2018-06-15T02:55:52.323Z,99.90
2018-06-15T02:58:20.672Z,99.90
2018-06-15T03:00:49.048Z,99.90
2018-06-15T03:03:18.746Z,99.90
2018-06-15T03:05:47.218Z,99.90
2018-06-15T03:08:15.570Z,99.90
2018-06-15T03:15:40.044Z,99.90
2018-06-15T03:18:08.422Z,99.90
2018-06-15T03:20:36.830Z,99.90
2018-06-15T03:23:05.209Z,99.90
2018-06-15T03:25:33.572Z,99.90
2018-06-15T03:28:01.942Z,99.90
2018-06-15T03:30:30.438Z,99.90
2018-06-15T03:32:58.837Z,99.90
2018-06-15T03:37:55.326Z,99.90
2018-06-15T03:40:23.723Z,99.90
2018-06-15T03:42:52.165Z,99.90
2018-06-15T03:45:20.547Z,99.90
2018-06-15T03:47:48.937Z,99.90
2018-06-15T03:50:17.328Z,99.90
2018-06-15T03:52:45.691Z,99.90
2018-06-15T03:55:14.062Z,99.90
2018-06-15T03:57:42.429Z,99.90
2018-06-15T04:00:10.825Z,99.90
2018-06-15T04:02:39.197Z,99.90
2018-06-15T04:05:07.556Z,99.90
2018-06-15T04:10:04.152Z,99.90
2018-06-15T04:12:32.598Z,99.90
2018-06-15T04:15:00.961Z,99.90
2018-06-15T04:17:30.556Z,99.90
2018-06-15T04:19:58.903Z,99.90
2018-06-15T04:22:27.281Z,99.90
2018-06-15T04:24:55.676Z,99.90
2018-06-15T04:27:24.029Z,99.90
2018-06-15T04:29:52.399Z,99.90
2018-06-15T04:32:20.874Z,99.90
2018-06-15T04:34:49.253Z,99.90
2018-06-15T04:37:17.646Z,99.90
2018-06-15T04:39:46.015Z,99.90
2018-06-15T04:42:14.411Z,99.90
2018-06-15T04:44:42.837Z,99.90
2018-06-15T04:47:11.248Z,99.90
2018-06-15T04:49:39.930Z,99.90
2018-06-15T04:52:08.275Z,99.90
2018-06-15T04:54:36.631Z,99.90
2018-06-15T04:57:05.002Z,99.90
2018-06-15T04:59:33.361Z,99.90
2018-06-15T05:02:01.731Z,99.90
2018-06-15T05:04:30.101Z,99.90
2018-06-15T05:06:58.439Z,99.90
2018-06-15T05:09:26.779Z,99.90
2018-06-15T05:11:55.917Z,99.90
2018-06-15T05:14:24.271Z,99.90
2018-06-15T05:16:52.679Z,99.90
2018-06-15T05:19:21.078Z,99.90
2018-06-15T05:21:49.508Z,99.90
2018-06-15T05:24:17.879Z,99.90
2018-06-15T05:26:46.294Z,99.90
2018-06-15T05:29:14.668Z,99.90
2018-06-15T05:31:43.074Z,99.90
2018-06-15T05:34:11.474Z,99.90
2018-06-15T05:36:39.880Z,99.90
2018-06-15T05:39:09.745Z,99.90
2018-06-15T05:41:38.175Z,99.90
2018-06-15T05:44:06.585Z,99.90
2018-06-15T05:46:34.960Z,99.90
2018-06-15T05:49:03.563Z,99.90
2018-06-15T05:51:32.838Z,99.90
2018-06-15T05:54:01.269Z,99.90
2018-06-15T05:56:29.667Z,99.90
2018-06-15T05:58:58.073Z,99.90
2018-06-15T06:01:26.498Z,99.90
2018-06-15T06:03:55.285Z,99.90
2018-06-15T06:06:23.683Z,99.90
2018-06-15T06:08:52.014Z,99.90
2018-06-15T06:11:20.489Z,99.90
2018-06-15T06:13:48.845Z,99.90
2018-06-15T06:16:17.235Z,99.90
2018-06-15T06:18:45.603Z,99.90
2018-06-15T06:21:13.999Z,99.90
2018-06-15T06:23:42.827Z,99.90
2018-06-15T06:26:11.196Z,99.90
2018-06-15T06:31:08.241Z,99.90
2018-06-15T06:33:36.601Z,99.90
2018-06-15T06:36:05.045Z,99.90
2018-06-15T06:38:33.426Z,99.90
2018-06-15T06:41:01.861Z,99.90
2018-06-15T06:43:30.236Z,99.90
2018-06-15T06:45:58.571Z,99.90
2018-06-15T06:48:26.989Z,99.90
2018-06-15T06:50:55.349Z,99.90
2018-06-15T06:53:23.737Z,99.90
2018-06-15T06:55:52.079Z,99.90
2018-06-15T06:58:20.445Z,99.90
2018-06-15T07:00:48.807Z,99.90
2018-06-15T07:05:45.237Z,99.90
2018-06-15T07:08:13.627Z,99.90
2018-06-15T07:10:42.029Z,99.90
2018-06-15T07:13:10.446Z,99.90
2018-06-15T07:15:38.775Z,99.90
2018-06-15T07:18:07.416Z,99.90
2018-06-15T07:20:35.755Z,99.90
2018-06-15T07:23:04.448Z,99.90
2018-06-15T07:25:32.818Z,99.90
2018-06-15T07:28:01.171Z,99.90
2018-06-15T07:30:29.521Z,95.70
2018-06-15T07:32:57.932Z,95.10
2018-06-15T07:35:26.309Z,95.80
2018-06-15T07:37:54.705Z,93.50
2018-06-15T07:40:23.035Z,90.70
2018-06-15T07:42:51.402Z,90.40
2018-06-15T07:45:19.848Z,83.10
2018-06-15T07:47:48.210Z,79.60
2018-06-15T07:50:16.574Z,78.40
2018-06-15T07:52:44.940Z,75.20
2018-06-15T07:55:13.762Z,75.70
2018-06-15T07:57:42.141Z,71.40
2018-06-15T08:00:10.552Z,70.70
2018-06-15T08:02:38.908Z,70.70
2018-06-15T08:05:07.272Z,70.00
2018-06-15T08:07:35.637Z,69.40
2018-06-15T08:10:04.120Z,68.20
2018-06-15T08:12:32.525Z,69.30
2018-06-15T08:15:00.925Z,68.50
2018-06-15T08:17:29.347Z,68.00
2018-06-15T08:19:57.716Z,69.30
2018-06-15T08:22:26.143Z,73.30
2018-06-15T08:24:54.575Z,71.00
2018-06-15T08:27:23.004Z,69.80
2018-06-15T08:29:51.379Z,67.50
2018-06-15T08:32:19.833Z,68.80
2018-06-15T08:34:48.239Z,66.60
2018-06-15T08:37:16.625Z,64.10
2018-06-15T08:39:45.023Z,63.30
2018-06-15T08:42:13.460Z,62.90
2018-06-15T08:44:41.849Z,62.40
2018-06-15T08:47:10.300Z,63.80
2018-06-15T08:49:38.680Z,64.80
2018-06-15T08:52:07.466Z,64.60
2018-06-15T08:54:35.886Z,64.30
2018-06-15T08:57:04.311Z,64.90
2018-06-15T08:59:32.730Z,64.20
2018-06-15T09:02:01.151Z,66.30
2018-06-15T09:04:29.542Z,66.30
2018-06-15T09:06:57.922Z,67.20
2018-06-15T09:09:26.348Z,67.60
2018-06-15T09:11:54.774Z,65.90
2018-06-15T09:14:23.199Z,67.10
2018-06-15T09:16:51.548Z,66.00
2018-06-15T09:19:19.932Z,66.90
2018-06-15T09:21:48.314Z,66.30
2018-06-15T09:24:16.752Z,64.50
2018-06-15T09:26:45.134Z,64.10
2018-06-15T09:29:13.546Z,64.50
2018-06-15T09:31:41.932Z,64.50
2018-06-15T09:34:10.638Z,64.90
2018-06-15T09:36:39.060Z,64.50
2018-06-15T09:39:08.664Z,63.90
2018-06-15T09:41:37.017Z,64.00
2018-06-15T09:44:05.381Z,64.30
2018-06-15T09:49:01.857Z,60.20
2018-06-15T09:51:30.274Z,60.10
2018-06-15T09:53:58.708Z,60.30
2018-06-15T09:56:27.062Z,60.10
2018-06-15T09:58:56.759Z,60.00
2018-06-15T10:01:25.209Z,59.30
2018-06-15T10:03:53.581Z,57.00
2018-06-15T10:06:21.988Z,55.60
2018-06-15T10:08:50.367Z,53.40
2018-06-15T10:11:18.786Z,51.90
2018-06-15T10:13:47.166Z,51.40
2018-06-15T10:16:15.565Z,51.50
2018-06-15T10:18:43.935Z,51.60
2018-06-15T10:21:12.376Z,50.70
2018-06-15T10:23:40.718Z,49.50
2018-06-15T10:26:09.138Z,47.40
2018-06-15T10:28:37.547Z,45.10
2018-06-15T10:31:05.992Z,44.60
2018-06-15T10:33:34.343Z,43.30
2018-06-15T10:36:02.769Z,43.50
2018-06-15T10:40:59.382Z,45.60
2018-06-15T10:43:27.747Z,47.30
2018-06-15T10:45:56.132Z,47.20
2018-06-15T10:48:24.552Z,47.60
2018-06-15T10:50:52.926Z,47.50
2018-06-15T10:53:21.291Z,48.60
2018-06-15T10:55:49.659Z,48.30
2018-06-15T10:58:18.057Z,47.70
2018-06-15T11:00:46.922Z,46.60
2018-06-15T11:03:15.292Z,46.90
2018-06-15T11:05:43.787Z,47.80
2018-06-15T11:08:12.153Z,47.90
2018-06-15T11:10:40.508Z,47.00
2018-06-15T11:13:08.917Z,46.30
2018-06-15T11:15:37.259Z,46.20
2018-06-15T11:18:05.975Z,44.70
2018-06-15T11:20:34.361Z,44.40
2018-06-15T11:23:02.759Z,44.00
2018-06-15T11:25:31.159Z,43.70
2018-06-15T11:27:59.528Z,42.80
2018-06-15T11:30:27.924Z,42.30
2018-06-15T11:32:56.320Z,43.20
2018-06-15T11:40:20.836Z,42.30
2018-06-15T11:42:49.262Z,41.40
2018-06-15T11:45:17.656Z,40.10
2018-06-15T11:47:46.072Z,39.20
2018-06-15T11:52:42.530Z,37.60
2018-06-15T11:55:11.060Z,35.40
2018-06-15T11:57:39.989Z,31.90
2018-06-15T12:00:08.433Z,30.50
2018-06-15T12:02:36.768Z,30.60
2018-06-15T12:05:05.250Z,31.10
2018-06-15T12:07:33.668Z,27.50
2018-06-15T12:10:02.498Z,27.00
2018-06-15T12:12:30.874Z,26.50
2018-06-15T12:19:55.660Z,26.30
2018-06-15T12:22:24.295Z,26.90
2018-06-15T12:27:20.785Z,28.80
2018-06-15T12:29:49.151Z,29.00
2018-06-15T12:32:17.556Z,29.00
2018-06-15T12:34:45.906Z,29.50
2018-06-15T12:37:14.269Z,28.90
2018-06-15T12:39:42.649Z,27.10
2018-06-15T12:42:11.039Z,27.00
2018-06-15T12:44:39.444Z,25.70
2018-06-15T12:47:07.858Z,26.30
2018-06-15T12:49:36.273Z,25.90
2018-06-15T12:52:04.642Z,26.20
2018-06-15T12:54:33.073Z,26.20
2018-06-15T12:57:01.714Z,25.80
2018-06-15T12:59:30.122Z,26.40
2018-06-15T13:01:58.502Z,25.60
2018-06-15T13:04:26.965Z,24.60
2018-06-15T13:06:55.366Z,24.40
2018-06-15T13:09:23.755Z,25.90
2018-06-15T13:11:52.122Z,26.00
2018-06-15T13:14:20.553Z,26.10
2018-06-15T13:19:17.097Z,24.30
2018-06-15T13:21:45.559Z,24.10
2018-06-15T13:24:13.927Z,24.30
2018-06-15T13:26:42.423Z,25.30
2018-06-15T13:29:10.870Z,26.00
2018-06-15T13:31:39.253Z,27.00
2018-06-15T13:34:07.642Z,28.40
2018-06-15T13:36:36.059Z,29.10
2018-06-15T13:39:08.115Z,30.20
2018-06-15T13:41:36.506Z,30.90
2018-06-15T13:51:29.227Z,35.40
2018-06-15T13:53:57.605Z,36.00
2018-06-15T13:56:26.097Z,35.60
2018-06-15T13:58:54.488Z,35.50
2018-06-15T14:01:22.844Z,35.00
2018-06-15T14:03:51.320Z,34.10
2018-06-15T14:06:19.759Z,33.60
2018-06-15T14:08:48.100Z,33.90
2018-06-15T14:11:16.503Z,35.10
2018-06-15T14:13:44.876Z,34.80
2018-06-15T14:16:13.304Z,35.30
2018-06-15T14:18:41.696Z,35.40
2018-06-15T14:21:10.120Z,35.80
2018-06-15T14:23:38.532Z,37.20
2018-06-15T14:26:07.058Z,37.50
2018-06-15T14:28:35.415Z,37.80
2018-06-15T14:31:03.817Z,39.50
2018-06-15T14:33:32.236Z,40.30
2018-06-15T14:36:00.602Z,41.00
2018-06-15T14:38:29.031Z,41.20
2018-06-15T14:40:57.378Z,41.10
2018-06-15T14:43:25.790Z,41.30
2018-06-15T14:45:54.258Z,42.00
2018-06-15T14:48:22.631Z,42.30
2018-06-15T14:53:19.127Z,44.00
2018-06-15T14:55:47.545Z,44.60
2018-06-15T14:58:15.954Z,44.40
2018-06-15T15:00:46.624Z,44.50
2018-06-15T15:03:15.065Z,45.60
2018-06-15T15:05:43.399Z,46.10
2018-06-15T15:08:11.808Z,45.80
2018-06-15T15:13:08.281Z,47.00
2018-06-15T15:15:36.704Z,47.30
2018-06-15T15:18:05.120Z,47.20
2018-06-15T15:20:34.433Z,47.80
2018-06-15T15:23:02.857Z,47.80
2018-06-15T15:25:31.506Z,48.30
2018-06-15T15:27:59.891Z,49.10
2018-06-15T15:30:28.317Z,49.50
2018-06-15T15:32:56.889Z,48.70
2018-06-15T15:35:25.255Z,48.70
2018-06-15T15:37:53.829Z,48.60
2018-06-15T15:40:22.222Z,48.90
2018-06-15T15:42:50.568Z,49.10
2018-06-15T15:45:18.994Z,49.40
2018-06-15T15:47:47.356Z,49.70
2018-06-15T15:50:15.725Z,48.80
2018-06-15T15:52:44.132Z,48.90
2018-06-15T15:55:12.537Z,49.10
2018-06-15T15:57:40.961Z,48.80
2018-06-15T16:00:09.336Z,49.10
2018-06-15T16:02:37.696Z,48.80
2018-06-15T16:05:06.332Z,49.00
2018-06-15T16:07:34.690Z,50.20
2018-06-15T16:10:03.110Z,50.70
2018-06-15T16:12:31.453Z,51.20
2018-06-15T16:14:59.806Z,51.70
2018-06-15T16:17:28.177Z,51.50
2018-06-15T16:19:56.496Z,52.20
2018-06-15T16:22:24.876Z,51.40
2018-06-15T16:24:53.230Z,52.30
2018-06-15T16:27:21.684Z,51.80
2018-06-15T16:29:50.006Z,51.70
2018-06-15T16:32:18.391Z,52.20
2018-06-15T16:34:46.794Z,52.50
2018-06-15T16:37:15.229Z,52.90
2018-06-15T16:39:43.676Z,53.20
2018-06-15T16:42:12.015Z,53.90
2018-06-15T16:44:40.412Z,54.10
2018-06-15T16:47:08.790Z,54.10
2018-06-15T16:49:37.935Z,54.90
2018-06-15T16:52:06.369Z,56.30
2018-06-15T16:54:34.739Z,56.80
2018-06-15T16:57:03.103Z,57.00
2018-06-15T16:59:31.539Z,57.50
2018-06-15T17:01:59.894Z,57.70
2018-06-15T17:04:28.266Z,57.60
2018-06-15T17:06:56.637Z,57.70
2018-06-15T17:09:25.037Z,58.90
2018-06-15T17:11:53.382Z,58.20
2018-06-15T17:14:22.363Z,58.30
2018-06-15T17:16:50.748Z,58.80
2018-06-15T17:19:19.165Z,58.70
2018-06-15T17:21:47.581Z,58.70
2018-06-15T17:24:15.964Z,59.00
2018-06-15T17:26:44.408Z,59.30
2018-06-15T17:29:12.793Z,60.00
2018-06-15T17:31:41.180Z,60.00
2018-06-15T17:34:09.675Z,60.10
2018-06-15T17:36:42.277Z,60.70
2018-06-15T17:39:10.694Z,61.50
2018-06-15T17:44:07.152Z,62.20
2018-06-15T17:46:35.965Z,63.20
2018-06-15T17:49:04.540Z,64.40
2018-06-15T17:51:32.882Z,65.70
2018-06-15T17:54:01.254Z,66.80
2018-06-15T17:56:29.754Z,69.20
2018-06-15T17:58:58.116Z,71.00
2018-06-15T18:01:26.514Z,72.20
2018-06-15T18:03:54.879Z,74.40
2018-06-15T18:06:23.265Z,75.20
2018-06-15T18:08:51.729Z,75.90
2018-06-15T18:11:20.086Z,77.90
2018-06-15T18:13:48.508Z,78.00
2018-06-15T18:18:44.986Z,83.10
2018-06-15T18:21:13.382Z,82.70
2018-06-15T18:23:41.755Z,84.70
2018-06-15T18:26:10.163Z,87.80
2018-06-15T18:28:38.540Z,89.40
2018-06-15T18:31:07.266Z,90.60
2018-06-15T18:36:03.910Z,91.30
2018-06-15T18:38:32.300Z,92.10
2018-06-15T18:43:28.712Z,93.00
2018-06-15T18:45:57.181Z,93.60
2018-06-15T18:48:25.559Z,94.00
2018-06-15T18:50:53.970Z,95.70
2018-06-15T18:53:22.353Z,95.60
2018-06-15T18:55:50.760Z,96.40
2018-06-15T18:58:19.148Z,96.90
2018-06-15T19:00:47.550Z,96.50
2018-06-15T19:03:15.937Z,98.00
2018-06-15T19:05:44.527Z,98.70
2018-06-15T19:08:12.891Z,99.10
2018-06-15T19:10:41.304Z,99.80
2018-06-15T19:13:09.621Z,99.90
2018-06-15T19:15:38.058Z,99.90
2018-06-15T19:18:06.501Z,99.90
2018-06-15T19:20:34.951Z,99.90
2018-06-15T19:23:03.418Z,99.90
2018-06-15T19:25:31.863Z,99.90
2018-06-15T19:28:00.289Z,99.90
2018-06-15T19:30:28.684Z,99.90
2018-06-15T19:32:57.067Z,99.90
2018-06-15T19:35:25.512Z,99.90
2018-06-15T19:37:53.917Z,99.90
2018-06-15T19:40:22.397Z,99.90
2018-06-15T19:42:50.821Z,99.90
2018-06-15T19:45:19.525Z,99.90
2018-06-15T19:47:47.924Z,99.90
2018-06-15T19:50:16.291Z,99.90
2018-06-15T19:52:44.662Z,99.90
2018-06-15T19:55:13.135Z,99.90
2018-06-15T19:57:41.683Z,99.90
2018-06-15T20:00:10.244Z,99.90
2018-06-15T20:02:38.733Z,99.90
2018-06-15T20:07:35.182Z,99.90
2018-06-15T20:10:03.579Z,99.90
2018-06-15T20:12:32.020Z,99.90
2018-06-15T20:17:28.614Z,99.90
2018-06-15T20:19:56.948Z,99.90
2018-06-15T20:22:25.348Z,99.90
2018-06-15T20:24:53.724Z,99.90
2018-06-15T20:27:22.107Z,99.90
2018-06-15T20:29:50.501Z,99.90
2018-06-15T20:32:18.894Z,99.90
2018-06-15T20:34:47.377Z,99.90
2018-06-15T20:37:15.785Z,99.90
2018-06-15T20:39:44.179Z,99.90
2018-06-15T20:42:12.555Z,99.90
2018-06-15T20:44:40.938Z,99.90
2018-06-15T20:47:09.344Z,99.90
2018-06-15T20:49:37.732Z,99.90
2018-06-15T20:52:06.334Z,99.90
2018-06-15T20:54:34.752Z,99.90
2018-06-15T20:57:03.192Z,99.90
2018-06-15T20:59:31.703Z,99.90
2018-06-15T21:02:00.183Z,99.90
2018-06-15T21:04:28.596Z,99.90
2018-06-15T21:06:56.977Z,99.90
2018-06-15T21:11:53.441Z,99.90
2018-06-15T21:14:21.850Z,99.90
2018-06-15T21:16:50.231Z,99.90
2018-06-15T21:19:18.607Z,99.90
2018-06-15T21:21:47.044Z,99.90
2018-06-15T21:24:15.400Z,99.90
2018-06-15T21:26:43.877Z,99.90
2018-06-15T21:29:12.271Z,99.90
2018-06-15T21:31:40.652Z,99.90
2018-06-15T21:34:09.116Z,99.90
2018-06-15T21:36:37.540Z,99.90
2018-06-15T21:39:07.479Z,99.90
2018-06-15T21:41:35.893Z,99.90
2018-06-15T21:44:04.279Z,99.90
2018-06-15T21:46:32.643Z,99.90
2018-06-15T21:49:01.003Z,99.90
2018-06-15T21:51:29.402Z,99.90
2018-06-15T21:53:57.784Z,99.90
2018-06-15T21:56:26.161Z,99.90
2018-06-15T21:58:54.590Z,99.90
2018-06-15T22:01:28.162Z,99.90
2018-06-15T22:08:52.995Z,99.90
2018-06-15T22:13:49.630Z,99.90
2018-06-15T22:18:46.158Z,99.90
2018-06-15T22:21:14.524Z,99.90
2018-06-15T22:23:43.027Z,99.90
2018-06-15T22:26:11.446Z,99.90
2018-06-15T22:28:39.865Z,99.90
2018-06-15T22:31:09.024Z,99.90
2018-06-15T22:33:37.680Z,99.90
2018-06-15T22:36:06.018Z,99.90
2018-06-15T22:38:34.405Z,99.90
2018-06-15T22:41:02.768Z,99.90
2018-06-15T22:43:31.133Z,99.90
2018-06-15T22:45:59.477Z,99.90
2018-06-15T22:48:27.815Z,99.90
2018-06-15T22:50:56.237Z,99.90
2018-06-15T22:53:24.606Z,99.90
2018-06-15T22:55:52.989Z,99.90
2018-06-15T22:58:21.501Z,99.90
2018-06-15T23:00:49.924Z,99.90
2018-06-15T23:03:18.260Z,99.90
2018-06-15T23:05:46.631Z,99.90
2018-06-15T23:10:43.117Z,99.90
2018-06-15T23:13:11.497Z,99.90
2018-06-15T23:15:39.865Z,99.90
2018-06-15T23:18:08.241Z,99.90
2018-06-15T23:20:36.629Z,99.90
2018-06-15T23:23:05.111Z,99.90
2018-06-15T23:25:33.521Z,99.90
2018-06-15T23:28:01.902Z,99.90
2018-06-15T23:30:30.583Z,99.90
2018-06-15T23:32:59.085Z,99.90
2018-06-15T23:35:27.465Z,99.90
2018-06-15T23:37:55.887Z,99.90
2018-06-15T23:40:24.317Z,99.90
2018-06-15T23:42:52.729Z,99.90
2018-06-15T23:45:21.116Z,99.90
2018-06-15T23:47:49.521Z,99.90
2018-06-15T23:50:17.868Z,99.90
2018-06-15T23:52:46.266Z,99.90
2018-06-15T23:55:14.624Z,99.90
